sensor_id;sensor_type;location;lat;lon;timestamp;pressure;altitude;pressure_sealevel;temperature;humidity
60611;BME280;46439;51.164;13.572;2024-01-06T00:01:21;99096.29;;;5.92;0.00
60611;BME280;46439;51.164;13.572;2024-01-06T00:03:49;99097.75;;;5.99;0.00
60611;BME280;46439;51.164;13.572;2024-01-06T00:06:18;99096.21;;;6.02;0.00
60611;BME280;46439;51.164;13.572;2024-01-06T00:08:46;99095.75;;;5.98;0.00
60611;BME280;46439;51.164;13.572;2024-01-06T00:11:14;99093.84;;;5.95;0.00
60611;BME280;46439;51.164;13.572;2024-01-06T00:13:42;99092.66;;;5.95;0.00
60611;BME280;46439;51.164;13.572;2024-01-06T00:16:10;99094.46;;;5.90;0.00
60611;BME280;46439;51.164;13.572;2024-01-06T00:18:38;99097.35;;;5.88;0.00
60611;BME280;46439;51.164;13.572;2024-01-06T00:21:23;99102.65;;;5.93;0.00
60611;BME280;46439;51.164;13.572;2024-01-06T00:23:51;99103.92;;;5.93;0.00
60611;BME280;46439;51.164;13.572;2024-01-06T00:26:19;99101.59;;;5.91;0.00
60611;BME280;46439;51.164;13.572;2024-01-06T00:28:48;99103.14;;;5.93;0.00
60611;BME280;46439;51.164;13.572;2024-01-06T00:31:29;99106.86;;;6.01;0.00
60611;BME280;46439;51.164;13.572;2024-01-06T00:33:57;99109.05;;;6.03;0.00
60611;BME280;46439;51.164;13.572;2024-01-06T00:36:26;99106.91;;;6.08;0.00
60611;BME280;46439;51.164;13.572;2024-01-06T00:38:54;99110.48;;;6.13;0.00
60611;BME280;46439;51.164;13.572;2024-01-06T00:41:22;99113.95;;;6.21;0.00
60611;BME280;46439;51.164;13.572;2024-01-06T00:43:50;99121.69;;;6.23;0.00
60611;BME280;46439;51.164;13.572;2024-01-06T00:46:19;99126.09;;;6.22;0.00
60611;BME280;46439;51.164;13.572;2024-01-06T00:48:47;99128.08;;;6.22;0.00
60611;BME280;46439;51.164;13.572;2024-01-06T00:51:15;99130.54;;;6.17;0.00
60611;BME280;46439;51.164;13.572;2024-01-06T00:53:43;99134.58;;;6.08;0.00
60611;BME280;46439;51.164;13.572;2024-01-06T00:56:11;99131.36;;;6.07;0.00
60611;BME280;46439;51.164;13.572;2024-01-06T00:58:39;99132.73;;;6.11;0.00
60611;BME280;46439;51.164;13.572;2024-01-06T01:01:07;99134.23;;;6.18;0.00
60611;BME280;46439;51.164;13.572;2024-01-06T01:03:35;99143.23;;;6.22;0.00
60611;BME280;46439;51.164;13.572;2024-01-06T01:06:03;99143.27;;;6.17;0.00
60611;BME280;46439;51.164;13.572;2024-01-06T01:08:32;99138.79;;;6.12;0.00
60611;BME280;46439;51.164;13.572;2024-01-06T01:11:00;99137.95;;;6.17;0.00
60611;BME280;46439;51.164;13.572;2024-01-06T01:13:28;99138.64;;;6.23;0.00
60611;BME280;46439;51.164;13.572;2024-01-06T01:15:56;99140.03;;;6.27;0.00
60611;BME280;46439;51.164;13.572;2024-01-06T01:18:24;99143.88;;;6.32;0.00
60611;BME280;46439;51.164;13.572;2024-01-06T01:20:52;99144.54;;;6.31;0.00
60611;BME280;46439;51.164;13.572;2024-01-06T01:23:20;99144.84;;;6.21;0.00
60611;BME280;46439;51.164;13.572;2024-01-06T01:25:48;99144.63;;;6.06;0.00
60611;BME280;46439;51.164;13.572;2024-01-06T01:28:17;99142.62;;;5.97;0.00
60611;BME280;46439;51.164;13.572;2024-01-06T01:30:45;99142.50;;;5.88;0.00
60611;BME280;46439;51.164;13.572;2024-01-06T01:33:13;99143.80;;;5.86;0.00
60611;BME280;46439;51.164;13.572;2024-01-06T01:35:41;99147.46;;;5.89;0.00
60611;BME280;46439;51.164;13.572;2024-01-06T01:38:09;99146.35;;;5.90;0.00
60611;BME280;46439;51.164;13.572;2024-01-06T01:40:37;99146.59;;;5.91;0.00
60611;BME280;46439;51.164;13.572;2024-01-06T01:43:06;99149.90;;;5.94;0.00
60611;BME280;46439;51.164;13.572;2024-01-06T01:45:43;99154.67;;;5.98;0.00
60611;BME280;46439;51.164;13.572;2024-01-06T01:48:11;99151.26;;;6.02;0.00
60611;BME280;46439;51.164;13.572;2024-01-06T01:50:39;99154.02;;;6.07;0.00
60611;BME280;46439;51.164;13.572;2024-01-06T01:53:08;99155.23;;;6.12;0.00
60611;BME280;46439;51.164;13.572;2024-01-06T01:55:36;99156.57;;;6.11;0.00
60611;BME280;46439;51.164;13.572;2024-01-06T01:58:04;99155.95;;;5.99;0.00
60611;BME280;46439;51.164;13.572;2024-01-06T02:00:33;99156.02;;;5.85;0.00
60611;BME280;46439;51.164;13.572;2024-01-06T02:03:02;99156.91;;;5.75;0.00
60611;BME280;46439;51.164;13.572;2024-01-06T02:05:31;99153.86;;;5.69;0.00
60611;BME280;46439;51.164;13.572;2024-01-06T02:07:59;99154.20;;;5.77;0.00
60611;BME280;46439;51.164;13.572;2024-01-06T02:10:27;99153.27;;;5.87;0.00
60611;BME280;46439;51.164;13.572;2024-01-06T02:12:57;99156.39;;;5.93;0.00
60611;BME280;46439;51.164;13.572;2024-01-06T02:15:25;99153.21;;;6.00;0.00
60611;BME280;46439;51.164;13.572;2024-01-06T02:17:53;99156.28;;;6.04;0.00
60611;BME280;46439;51.164;13.572;2024-01-06T02:20:22;99157.59;;;6.04;0.00
60611;BME280;46439;51.164;13.572;2024-01-06T02:22:52;99162.11;;;6.05;0.00
60611;BME280;46439;51.164;13.572;2024-01-06T02:25:20;99166.20;;;6.02;0.00
60611;BME280;46439;51.164;13.572;2024-01-06T02:27:48;99166.05;;;5.90;0.00
60611;BME280;46439;51.164;13.572;2024-01-06T02:30:16;99165.48;;;5.87;0.00
60611;BME280;46439;51.164;13.572;2024-01-06T02:32:44;99164.48;;;5.73;0.00
60611;BME280;46439;51.164;13.572;2024-01-06T02:35:13;99163.33;;;5.68;0.00
60611;BME280;46439;51.164;13.572;2024-01-06T02:37:41;99162.45;;;5.57;0.00
60611;BME280;46439;51.164;13.572;2024-01-06T02:40:11;99160.24;;;5.56;0.00
60611;BME280;46439;51.164;13.572;2024-01-06T02:42:40;99165.00;;;5.67;0.00
60611;BME280;46439;51.164;13.572;2024-01-06T02:45:09;99165.27;;;5.71;0.00
60611;BME280;46439;51.164;13.572;2024-01-06T02:47:37;99168.86;;;5.69;0.00
60611;BME280;46439;51.164;13.572;2024-01-06T02:50:07;99173.83;;;5.64;0.00
60611;BME280;46439;51.164;13.572;2024-01-06T02:52:36;99174.30;;;5.61;0.00
60611;BME280;46439;51.164;13.572;2024-01-06T02:55:06;99174.33;;;5.53;0.00
60611;BME280;46439;51.164;13.572;2024-01-06T02:57:34;99175.69;;;5.45;0.00
60611;BME280;46439;51.164;13.572;2024-01-06T03:00:04;99177.16;;;5.47;0.00
60611;BME280;46439;51.164;13.572;2024-01-06T03:02:32;99177.48;;;5.42;0.00
60611;BME280;46439;51.164;13.572;2024-01-06T03:05:00;99182.31;;;5.44;0.00
60611;BME280;46439;51.164;13.572;2024-01-06T03:07:35;99180.73;;;5.42;0.00
60611;BME280;46439;51.164;13.572;2024-01-06T03:10:03;99183.81;;;5.39;0.00
60611;BME280;46439;51.164;13.572;2024-01-06T03:12:31;99189.03;;;5.44;0.00
60611;BME280;46439;51.164;13.572;2024-01-06T03:14:59;99190.41;;;5.45;0.00
60611;BME280;46439;51.164;13.572;2024-01-06T03:17:27;99188.79;;;5.34;0.00
60611;BME280;46439;51.164;13.572;2024-01-06T03:19:56;99185.33;;;5.30;0.00
60611;BME280;46439;51.164;13.572;2024-01-06T03:22:25;99187.41;;;5.31;0.00
60611;BME280;46439;51.164;13.572;2024-01-06T03:24:53;99187.36;;;5.28;0.00
60611;BME280;46439;51.164;13.572;2024-01-06T03:27:21;99188.07;;;5.18;0.00
60611;BME280;46439;51.164;13.572;2024-01-06T03:29:49;99191.92;;;5.08;0.00
60611;BME280;46439;51.164;13.572;2024-01-06T03:32:17;99190.74;;;5.08;0.00
60611;BME280;46439;51.164;13.572;2024-01-06T03:34:45;99189.09;;;5.01;0.00
60611;BME280;46439;51.164;13.572;2024-01-06T03:37:13;99191.20;;;5.07;0.00
60611;BME280;46439;51.164;13.572;2024-01-06T03:39:41;99192.39;;;5.14;0.00
60611;BME280;46439;51.164;13.572;2024-01-06T03:42:10;99193.16;;;5.09;0.00
60611;BME280;46439;51.164;13.572;2024-01-06T03:44:38;99194.64;;;5.11;0.00
60611;BME280;46439;51.164;13.572;2024-01-06T03:47:07;99197.48;;;5.11;0.00
60611;BME280;46439;51.164;13.572;2024-01-06T03:49:35;99198.42;;;5.14;0.00
60611;BME280;46439;51.164;13.572;2024-01-06T03:52:03;99196.44;;;5.18;0.00
60611;BME280;46439;51.164;13.572;2024-01-06T03:54:31;99199.65;;;5.19;0.00
60611;BME280;46439;51.164;13.572;2024-01-06T03:56:59;99197.77;;;5.17;0.00
60611;BME280;46439;51.164;13.572;2024-01-06T03:59:28;99196.91;;;5.10;0.00
60611;BME280;46439;51.164;13.572;2024-01-06T04:01:56;99196.92;;;5.03;0.00
60611;BME280;46439;51.164;13.572;2024-01-06T04:04:24;99200.70;;;4.99;0.00
60611;BME280;46439;51.164;13.572;2024-01-06T04:06:52;99199.95;;;4.95;0.00
60611;BME280;46439;51.164;13.572;2024-01-06T04:09:20;99200.30;;;4.96;0.00
60611;BME280;46439;51.164;13.572;2024-01-06T04:11:48;99202.60;;;5.02;0.00
60611;BME280;46439;51.164;13.572;2024-01-06T04:14:16;99202.15;;;5.05;0.00
60611;BME280;46439;51.164;13.572;2024-01-06T04:16:44;99204.09;;;5.06;0.00
60611;BME280;46439;51.164;13.572;2024-01-06T04:19:13;99211.10;;;5.04;0.00
60611;BME280;46439;51.164;13.572;2024-01-06T04:21:41;99211.31;;;5.07;0.00
60611;BME280;46439;51.164;13.572;2024-01-06T04:24:09;99209.90;;;5.14;0.00
60611;BME280;46439;51.164;13.572;2024-01-06T04:26:37;99211.77;;;5.18;0.00
60611;BME280;46439;51.164;13.572;2024-01-06T04:29:05;99212.80;;;5.24;0.00
60611;BME280;46439;51.164;13.572;2024-01-06T04:31:34;99214.66;;;5.28;0.00
60611;BME280;46439;51.164;13.572;2024-01-06T04:34:02;99217.59;;;5.34;0.00
60611;BME280;46439;51.164;13.572;2024-01-06T04:36:31;99220.92;;;5.45;0.00
60611;BME280;46439;51.164;13.572;2024-01-06T04:38:59;99214.68;;;5.51;0.00
60611;BME280;46439;51.164;13.572;2024-01-06T04:41:27;99216.23;;;5.47;0.00
60611;BME280;46439;51.164;13.572;2024-01-06T04:43:55;99216.96;;;5.45;0.00
60611;BME280;46439;51.164;13.572;2024-01-06T04:46:23;99216.70;;;5.56;0.00
60611;BME280;46439;51.164;13.572;2024-01-06T04:48:52;99221.98;;;5.60;0.00
60611;BME280;46439;51.164;13.572;2024-01-06T04:51:20;99223.44;;;5.65;0.00
60611;BME280;46439;51.164;13.572;2024-01-06T04:53:48;99227.96;;;5.71;0.00
60611;BME280;46439;51.164;13.572;2024-01-06T04:56:16;99226.73;;;5.72;0.00
60611;BME280;46439;51.164;13.572;2024-01-06T04:58:44;99230.30;;;5.82;0.00
60611;BME280;46439;51.164;13.572;2024-01-06T05:01:12;99228.95;;;5.83;0.00
60611;BME280;46439;51.164;13.572;2024-01-06T05:03:40;99229.86;;;5.88;0.00
60611;BME280;46439;51.164;13.572;2024-01-06T05:06:08;99232.59;;;5.94;0.00
60611;BME280;46439;51.164;13.572;2024-01-06T05:08:36;99237.84;;;5.99;0.00
60611;BME280;46439;51.164;13.572;2024-01-06T05:11:09;99240.11;;;6.01;0.00
60611;BME280;46439;51.164;13.572;2024-01-06T05:13:37;99241.88;;;5.99;0.00
60611;BME280;46439;51.164;13.572;2024-01-06T05:16:07;99235.06;;;5.96;0.00
60611;BME280;46439;51.164;13.572;2024-01-06T05:18:35;99236.26;;;5.91;0.00
60611;BME280;46439;51.164;13.572;2024-01-06T05:21:04;99240.23;;;5.91;0.00
60611;BME280;46439;51.164;13.572;2024-01-06T05:23:32;99242.59;;;5.94;0.00
60611;BME280;46439;51.164;13.572;2024-01-06T05:26:00;99243.73;;;6.02;0.00
60611;BME280;46439;51.164;13.572;2024-01-06T05:28:28;99246.14;;;6.04;0.00
60611;BME280;46439;51.164;13.572;2024-01-06T05:30:56;99247.05;;;6.04;0.00
60611;BME280;46439;51.164;13.572;2024-01-06T05:33:24;99246.10;;;5.96;0.00
60611;BME280;46439;51.164;13.572;2024-01-06T05:35:53;99248.05;;;6.10;0.00
60611;BME280;46439;51.164;13.572;2024-01-06T05:38:21;99252.27;;;6.10;0.00
60611;BME280;46439;51.164;13.572;2024-01-06T05:40:49;99255.05;;;6.13;0.00
60611;BME280;46439;51.164;13.572;2024-01-06T05:43:17;99259.44;;;6.13;0.00
60611;BME280;46439;51.164;13.572;2024-01-06T05:45:45;99266.41;;;6.17;0.00
60611;BME280;46439;51.164;13.572;2024-01-06T05:48:13;99266.44;;;6.20;0.00
60611;BME280;46439;51.164;13.572;2024-01-06T05:50:41;99269.13;;;6.26;0.00
60611;BME280;46439;51.164;13.572;2024-01-06T05:53:10;99273.75;;;6.31;0.00
60611;BME280;46439;51.164;13.572;2024-01-06T05:55:39;99274.91;;;6.34;0.00
60611;BME280;46439;51.164;13.572;2024-01-06T05:58:07;99274.05;;;6.35;0.00
60611;BME280;46439;51.164;13.572;2024-01-06T06:00:35;99275.91;;;6.34;0.00
60611;BME280;46439;51.164;13.572;2024-01-06T06:03:04;99285.53;;;6.34;0.00
60611;BME280;46439;51.164;13.572;2024-01-06T06:05:32;99287.26;;;6.32;0.00
60611;BME280;46439;51.164;13.572;2024-01-06T06:08:00;99293.64;;;6.30;0.00
60611;BME280;46439;51.164;13.572;2024-01-06T06:10:28;99298.34;;;6.30;0.00
60611;BME280;46439;51.164;13.572;2024-01-06T06:13:08;99301.32;;;6.29;0.00
60611;BME280;46439;51.164;13.572;2024-01-06T06:15:38;99306.09;;;6.31;0.00
60611;BME280;46439;51.164;13.572;2024-01-06T06:18:07;99306.95;;;6.33;0.00
60611;BME280;46439;51.164;13.572;2024-01-06T06:20:35;99306.70;;;6.24;0.00
60611;BME280;46439;51.164;13.572;2024-01-06T06:23:03;99315.29;;;6.29;0.00
60611;BME280;46439;51.164;13.572;2024-01-06T06:25:31;99318.41;;;6.31;0.00
60611;BME280;46439;51.164;13.572;2024-01-06T06:27:59;99321.09;;;6.33;0.00
60611;BME280;46439;51.164;13.572;2024-01-06T06:30:27;99322.36;;;6.33;0.00
60611;BME280;46439;51.164;13.572;2024-01-06T06:32:56;99323.48;;;6.34;0.00
60611;BME280;46439;51.164;13.572;2024-01-06T06:35:25;99323.58;;;6.39;0.00
60611;BME280;46439;51.164;13.572;2024-01-06T06:37:53;99326.82;;;6.40;0.00
60611;BME280;46439;51.164;13.572;2024-01-06T06:40:21;99328.48;;;6.46;0.00
60611;BME280;46439;51.164;13.572;2024-01-06T06:42:49;99336.70;;;6.50;0.00
60611;BME280;46439;51.164;13.572;2024-01-06T06:45:18;99344.11;;;6.55;0.00
60611;BME280;46439;51.164;13.572;2024-01-06T06:47:51;99354.44;;;6.50;0.00
60611;BME280;46439;51.164;13.572;2024-01-06T06:50:19;99357.80;;;6.52;0.00
60611;BME280;46439;51.164;13.572;2024-01-06T06:52:48;99360.70;;;6.53;0.00
60611;BME280;46439;51.164;13.572;2024-01-06T06:55:16;99362.98;;;6.57;0.00
60611;BME280;46439;51.164;13.572;2024-01-06T06:57:44;99368.68;;;6.66;0.00
60611;BME280;46439;51.164;13.572;2024-01-06T07:00:14;99368.55;;;6.68;0.00
60611;BME280;46439;51.164;13.572;2024-01-06T07:02:44;99372.14;;;6.65;0.00
60611;BME280;46439;51.164;13.572;2024-01-06T07:05:14;99372.77;;;6.67;0.00
60611;BME280;46439;51.164;13.572;2024-01-06T07:07:43;99377.97;;;6.70;0.00
60611;BME280;46439;51.164;13.572;2024-01-06T07:10:15;99382.55;;;6.71;0.00
60611;BME280;46439;51.164;13.572;2024-01-06T07:12:43;99385.98;;;6.69;0.00
60611;BME280;46439;51.164;13.572;2024-01-06T07:15:11;99386.52;;;6.61;0.00
60611;BME280;46439;51.164;13.572;2024-01-06T07:17:39;99391.18;;;6.63;0.00
60611;BME280;46439;51.164;13.572;2024-01-06T07:20:09;99392.29;;;6.67;0.00
60611;BME280;46439;51.164;13.572;2024-01-06T07:22:37;99391.23;;;6.72;0.00
60611;BME280;46439;51.164;13.572;2024-01-06T07:25:06;99395.94;;;6.77;0.00
60611;BME280;46439;51.164;13.572;2024-01-06T07:27:35;99397.62;;;6.81;0.00
60611;BME280;46439;51.164;13.572;2024-01-06T07:30:04;99395.20;;;6.80;0.00
60611;BME280;46439;51.164;13.572;2024-01-06T07:32:32;99400.30;;;6.81;0.00
60611;BME280;46439;51.164;13.572;2024-01-06T07:35:01;99402.94;;;6.84;0.00
60611;BME280;46439;51.164;13.572;2024-01-06T07:37:30;99407.02;;;6.83;0.00
60611;BME280;46439;51.164;13.572;2024-01-06T07:39:58;99412.84;;;6.84;0.00
60611;BME280;46439;51.164;13.572;2024-01-06T07:42:26;99418.14;;;6.84;0.00
60611;BME280;46439;51.164;13.572;2024-01-06T07:44:54;99416.81;;;6.85;0.00
60611;BME280;46439;51.164;13.572;2024-01-06T07:47:22;99419.36;;;6.86;0.00
60611;BME280;46439;51.164;13.572;2024-01-06T07:49:51;99418.95;;;6.87;0.00
60611;BME280;46439;51.164;13.572;2024-01-06T07:52:20;99420.29;;;6.91;0.00
60611;BME280;46439;51.164;13.572;2024-01-06T07:54:49;99423.27;;;6.97;0.00
60611;BME280;46439;51.164;13.572;2024-01-06T07:57:17;99424.56;;;7.02;0.00
60611;BME280;46439;51.164;13.572;2024-01-06T07:59:45;99424.78;;;7.04;0.00
60611;BME280;46439;51.164;13.572;2024-01-06T08:02:14;99428.05;;;7.08;0.00
60611;BME280;46439;51.164;13.572;2024-01-06T08:04:42;99429.60;;;7.07;0.00
60611;BME280;46439;51.164;13.572;2024-01-06T08:07:10;99434.20;;;7.09;0.00
60611;BME280;46439;51.164;13.572;2024-01-06T08:09:38;99436.17;;;7.06;0.00
60611;BME280;46439;51.164;13.572;2024-01-06T08:12:07;99443.65;;;7.08;0.00
60611;BME280;46439;51.164;13.572;2024-01-06T08:14:35;99446.12;;;7.02;0.00
60611;BME280;46439;51.164;13.572;2024-01-06T08:17:04;99448.18;;;7.05;0.00
60611;BME280;46439;51.164;13.572;2024-01-06T08:19:32;99450.88;;;7.07;0.00
60611;BME280;46439;51.164;13.572;2024-01-06T08:22:01;99451.44;;;7.15;0.00
60611;BME280;46439;51.164;13.572;2024-01-06T08:24:29;99452.75;;;7.15;0.00
60611;BME280;46439;51.164;13.572;2024-01-06T08:26:57;99452.53;;;7.22;0.00
60611;BME280;46439;51.164;13.572;2024-01-06T08:29:26;99456.75;;;7.36;0.00
60611;BME280;46439;51.164;13.572;2024-01-06T08:31:54;99461.61;;;7.37;0.00
60611;BME280;46439;51.164;13.572;2024-01-06T08:34:22;99468.30;;;7.26;0.00
60611;BME280;46439;51.164;13.572;2024-01-06T08:36:50;99469.98;;;7.22;0.00
60611;BME280;46439;51.164;13.572;2024-01-06T08:39:18;99470.52;;;7.26;0.00
60611;BME280;46439;51.164;13.572;2024-01-06T08:41:46;99475.73;;;7.27;0.00
60611;BME280;46439;51.164;13.572;2024-01-06T08:44:15;99478.48;;;7.30;0.00
60611;BME280;46439;51.164;13.572;2024-01-06T08:46:43;99481.76;;;7.31;0.00
60611;BME280;46439;51.164;13.572;2024-01-06T08:49:11;99485.77;;;7.33;0.00
60611;BME280;46439;51.164;13.572;2024-01-06T08:51:39;99488.48;;;7.41;0.00
60611;BME280;46439;51.164;13.572;2024-01-06T08:54:07;99490.61;;;7.45;0.00
60611;BME280;46439;51.164;13.572;2024-01-06T08:56:35;99493.11;;;7.46;0.00
60611;BME280;46439;51.164;13.572;2024-01-06T08:59:04;99494.80;;;7.46;0.00
60611;BME280;46439;51.164;13.572;2024-01-06T09:01:32;99501.11;;;7.47;0.00
60611;BME280;46439;51.164;13.572;2024-01-06T09:04:01;99504.16;;;7.50;0.00
60611;BME280;46439;51.164;13.572;2024-01-06T09:06:29;99507.48;;;7.53;0.00
60611;BME280;46439;51.164;13.572;2024-01-06T09:08:57;99509.02;;;7.55;0.00
60611;BME280;46439;51.164;13.572;2024-01-06T09:11:26;99512.50;;;7.59;0.00
60611;BME280;46439;51.164;13.572;2024-01-06T09:13:54;99515.25;;;7.58;0.00
60611;BME280;46439;51.164;13.572;2024-01-06T09:16:22;99520.85;;;7.53;0.00
60611;BME280;46439;51.164;13.572;2024-01-06T09:18:50;99522.34;;;7.62;0.00
60611;BME280;46439;51.164;13.572;2024-01-06T09:21:18;99526.27;;;7.64;0.00
60611;BME280;46439;51.164;13.572;2024-01-06T09:23:46;99531.95;;;7.68;0.00
60611;BME280;46439;51.164;13.572;2024-01-06T09:26:14;99530.61;;;7.75;0.00
60611;BME280;46439;51.164;13.572;2024-01-06T09:28:44;99533.33;;;7.78;0.00
60611;BME280;46439;51.164;13.572;2024-01-06T09:31:12;99538.13;;;7.81;0.00
60611;BME280;46439;51.164;13.572;2024-01-06T09:33:41;99542.41;;;7.72;0.00
60611;BME280;46439;51.164;13.572;2024-01-06T09:36:10;99543.57;;;7.61;0.00
60611;BME280;46439;51.164;13.572;2024-01-06T09:38:40;99544.70;;;7.56;0.00
60611;BME280;46439;51.164;13.572;2024-01-06T09:41:08;99542.33;;;7.50;0.00
60611;BME280;46439;51.164;13.572;2024-01-06T09:43:36;99541.46;;;7.55;0.00
60611;BME280;46439;51.164;13.572;2024-01-06T09:46:10;99540.34;;;7.60;0.00
60611;BME280;46439;51.164;13.572;2024-01-06T09:48:41;99540.17;;;7.63;0.00
60611;BME280;46439;51.164;13.572;2024-01-06T09:51:12;99541.48;;;7.66;0.00
60611;BME280;46439;51.164;13.572;2024-01-06T09:53:48;99542.30;;;7.75;0.00
60611;BME280;46439;51.164;13.572;2024-01-06T09:56:17;99539.77;;;7.83;0.00
60611;BME280;46439;51.164;13.572;2024-01-06T09:58:47;99539.96;;;7.97;0.00
60611;BME280;46439;51.164;13.572;2024-01-06T10:01:15;99539.16;;;8.06;0.00
60611;BME280;46439;51.164;13.572;2024-01-06T10:03:45;99538.37;;;8.15;0.00
60611;BME280;46439;51.164;13.572;2024-01-06T10:06:14;99536.67;;;8.25;0.00
60611;BME280;46439;51.164;13.572;2024-01-06T10:08:47;99536.64;;;8.36;0.00
60611;BME280;46439;51.164;13.572;2024-01-06T10:11:16;99532.33;;;8.46;0.00
60611;BME280;46439;51.164;13.572;2024-01-06T10:13:44;99532.98;;;8.58;0.00
60611;BME280;46439;51.164;13.572;2024-01-06T10:16:12;99534.32;;;8.71;0.00
60611;BME280;46439;51.164;13.572;2024-01-06T10:18:41;99534.19;;;8.75;0.00
60611;BME280;46439;51.164;13.572;2024-01-06T10:21:09;99527.98;;;8.78;0.00
60611;BME280;46439;51.164;13.572;2024-01-06T10:23:37;99523.50;;;8.75;0.00
60611;BME280;46439;51.164;13.572;2024-01-06T10:26:05;99523.29;;;8.70;0.00
60611;BME280;46439;51.164;13.572;2024-01-06T10:28:34;99521.15;;;8.72;0.00
60611;BME280;46439;51.164;13.572;2024-01-06T10:31:03;99523.85;;;8.76;0.00
60611;BME280;46439;51.164;13.572;2024-01-06T10:33:33;99524.74;;;8.84;0.00
60611;BME280;46439;51.164;13.572;2024-01-06T10:36:03;99522.37;;;8.83;0.00
60611;BME280;46439;51.164;13.572;2024-01-06T10:38:32;99520.99;;;8.82;0.00
60611;BME280;46439;51.164;13.572;2024-01-06T10:41:03;99527.58;;;8.84;0.00
60611;BME280;46439;51.164;13.572;2024-01-06T10:43:36;99527.83;;;8.91;0.00
60611;BME280;46439;51.164;13.572;2024-01-06T10:46:06;99527.17;;;8.93;0.00
60611;BME280;46439;51.164;13.572;2024-01-06T10:48:37;99526.77;;;8.83;0.00
60611;BME280;46439;51.164;13.572;2024-01-06T10:51:13;99527.23;;;8.80;0.00
60611;BME280;46439;51.164;13.572;2024-01-06T10:53:44;99530.52;;;8.76;0.00
60611;BME280;46439;51.164;13.572;2024-01-06T10:56:12;99531.20;;;8.79;0.00
60611;BME280;46439;51.164;13.572;2024-01-06T10:58:48;99532.73;;;8.85;0.00
60611;BME280;46439;51.164;13.572;2024-01-06T11:01:21;99537.70;;;8.83;0.00
60611;BME280;46439;51.164;13.572;2024-01-06T11:03:50;99543.33;;;8.75;0.00
60611;BME280;46439;51.164;13.572;2024-01-06T11:06:19;99541.92;;;8.75;0.00
60611;BME280;46439;51.164;13.572;2024-01-06T11:08:53;99545.91;;;8.78;0.00
60611;BME280;46439;51.164;13.572;2024-01-06T11:11:25;99546.52;;;8.73;0.00
60611;BME280;46439;51.164;13.572;2024-01-06T11:13:54;99546.50;;;8.70;0.00
60611;BME280;46439;51.164;13.572;2024-01-06T11:16:42;99550.34;;;8.69;0.00
60611;BME280;46439;51.164;13.572;2024-01-06T11:19:44;99545.18;;;8.64;0.00
60611;BME280;46439;51.164;13.572;2024-01-06T11:22:27;99547.66;;;8.66;0.00
60611;BME280;46439;51.164;13.572;2024-01-06T11:25:05;99548.64;;;8.73;0.00
60611;BME280;46439;51.164;13.572;2024-01-06T11:27:35;99549.71;;;8.76;0.00
60611;BME280;46439;51.164;13.572;2024-01-06T11:30:05;99553.08;;;8.79;0.00
60611;BME280;46439;51.164;13.572;2024-01-06T11:32:34;99553.19;;;8.82;0.00
60611;BME280;46439;51.164;13.572;2024-01-06T11:35:11;99556.21;;;8.83;0.00
60611;BME280;46439;51.164;13.572;2024-01-06T11:37:53;99554.21;;;8.80;0.00
60611;BME280;46439;51.164;13.572;2024-01-06T11:40:30;99552.65;;;8.71;0.00
60611;BME280;46439;51.164;13.572;2024-01-06T11:43:02;99551.85;;;8.70;0.00
60611;BME280;46439;51.164;13.572;2024-01-06T11:45:31;99553.89;;;8.76;0.00
60611;BME280;46439;51.164;13.572;2024-01-06T11:48:01;99555.22;;;8.62;0.00
60611;BME280;46439;51.164;13.572;2024-01-06T11:50:31;99552.96;;;8.47;0.00
60611;BME280;46439;51.164;13.572;2024-01-06T11:53:01;99551.81;;;8.40;0.00
60611;BME280;46439;51.164;13.572;2024-01-06T11:55:29;99559.86;;;8.18;0.00
60611;BME280;46439;51.164;13.572;2024-01-06T11:58:03;99556.83;;;7.89;0.00
60611;BME280;46439;51.164;13.572;2024-01-06T12:00:33;99552.93;;;7.66;0.00
60611;BME280;46439;51.164;13.572;2024-01-06T12:03:05;99552.14;;;7.52;0.00
60611;BME280;46439;51.164;13.572;2024-01-06T12:05:33;99549.31;;;7.35;0.00
60611;BME280;46439;51.164;13.572;2024-01-06T12:08:03;99546.14;;;7.25;0.00
60611;BME280;46439;51.164;13.572;2024-01-06T12:10:34;99543.38;;;7.17;0.00
60611;BME280;46439;51.164;13.572;2024-01-06T12:13:04;99543.52;;;7.14;0.00
60611;BME280;46439;51.164;13.572;2024-01-06T12:15:33;99547.23;;;7.09;0.00
60611;BME280;46439;51.164;13.572;2024-01-06T12:18:04;99548.45;;;7.00;0.00
60611;BME280;46439;51.164;13.572;2024-01-06T12:20:33;99547.77;;;6.86;0.00
60611;BME280;46439;51.164;13.572;2024-01-06T12:23:02;99547.20;;;6.72;0.00
60611;BME280;46439;51.164;13.572;2024-01-06T12:25:34;99551.48;;;6.58;0.00
60611;BME280;46439;51.164;13.572;2024-01-06T12:28:05;99555.06;;;6.45;0.00
60611;BME280;46439;51.164;13.572;2024-01-06T12:30:34;99554.39;;;6.36;0.00
60611;BME280;46439;51.164;13.572;2024-01-06T12:33:03;99561.92;;;6.27;0.00
60611;BME280;46439;51.164;13.572;2024-01-06T12:35:32;99565.02;;;6.18;0.00
60611;BME280;46439;51.164;13.572;2024-01-06T12:38:00;99567.13;;;6.09;0.00
60611;BME280;46439;51.164;13.572;2024-01-06T12:40:29;99569.16;;;5.95;0.00
60611;BME280;46439;51.164;13.572;2024-01-06T12:42:58;99569.85;;;5.88;0.00
60611;BME280;46439;51.164;13.572;2024-01-06T12:45:26;99572.49;;;5.81;0.00
60611;BME280;46439;51.164;13.572;2024-01-06T12:47:55;99572.79;;;5.76;0.00
60611;BME280;46439;51.164;13.572;2024-01-06T12:50:23;99574.62;;;5.73;0.00
60611;BME280;46439;51.164;13.572;2024-01-06T12:52:51;99577.51;;;5.76;0.00
60611;BME280;46439;51.164;13.572;2024-01-06T12:55:20;99576.86;;;5.84;0.00
60611;BME280;46439;51.164;13.572;2024-01-06T12:57:48;99580.21;;;5.91;0.00
60611;BME280;46439;51.164;13.572;2024-01-06T13:00:17;99578.01;;;5.92;0.00
60611;BME280;46439;51.164;13.572;2024-01-06T13:02:46;99578.08;;;5.90;0.00
60611;BME280;46439;51.164;13.572;2024-01-06T13:05:14;99583.39;;;5.97;0.00
60611;BME280;46439;51.164;13.572;2024-01-06T13:07:52;99590.75;;;6.09;0.00
60611;BME280;46439;51.164;13.572;2024-01-06T13:10:22;99590.87;;;6.03;0.00
60611;BME280;46439;51.164;13.572;2024-01-06T13:12:51;99587.81;;;6.01;0.00
60611;BME280;46439;51.164;13.572;2024-01-06T13:15:19;99592.92;;;5.95;0.00
60611;BME280;46439;51.164;13.572;2024-01-06T13:17:47;99599.41;;;5.87;0.00
60611;BME280;46439;51.164;13.572;2024-01-06T13:20:16;99605.33;;;5.85;0.00